createdAt,value
2018-07-10T00:00:11.936Z,6.50
2018-07-10T00:03:25.320Z,6.83
2018-07-10T00:06:05.255Z,6.33
2018-07-10T00:11:44.798Z,6.30
2018-07-10T00:14:14.787Z,6.00
2018-07-10T00:16:43.806Z,6.30
2018-07-10T00:19:12.845Z,6.70
2018-07-10T00:21:42.028Z,6.50
2018-07-10T00:24:11.152Z,5.80
2018-07-10T00:26:40.243Z,6.87
2018-07-10T00:29:09.351Z,6.50
2018-07-10T00:31:38.431Z,6.03
2018-07-10T00:34:07.563Z,5.43
2018-07-10T00:36:36.604Z,6.37
2018-07-10T00:39:08.443Z,6.70
2018-07-10T00:41:38.530Z,6.37
2018-07-10T00:44:08.271Z,7.07
2018-07-10T00:46:39.128Z,6.80
2018-07-10T00:49:08.280Z,6.40
2018-07-10T00:51:39.746Z,6.80
2018-07-10T00:54:09.054Z,7.07
2018-07-10T00:56:38.384Z,5.97
2018-07-10T00:59:07.839Z,6.87
2018-07-10T01:01:37.179Z,6.50
2018-07-10T01:04:06.337Z,7.00
2018-07-10T01:06:35.568Z,6.80
2018-07-10T01:09:05.087Z,5.93
2018-07-10T01:11:34.241Z,6.03
2018-07-10T01:14:03.386Z,5.57
2018-07-10T01:16:36.261Z,6.27
2018-07-10T01:19:14.083Z,6.00
2018-07-10T01:21:44.453Z,6.27
2018-07-10T01:24:15.417Z,6.30
2018-07-10T01:26:44.623Z,6.03
2018-07-10T01:29:21.512Z,5.30
2018-07-10T01:31:53.312Z,5.43
2018-07-10T01:34:22.948Z,5.70
2018-07-10T01:36:53.336Z,7.10
2018-07-10T01:39:22.458Z,5.97
2018-07-10T01:41:51.763Z,5.97
2018-07-10T01:44:20.906Z,5.37
2018-07-10T01:46:49.972Z,5.80
2018-07-10T01:49:20.015Z,6.03
2018-07-10T01:51:49.112Z,5.50
2018-07-10T01:54:18.214Z,5.00
2018-07-10T01:56:47.235Z,5.83
2018-07-10T01:59:16.843Z,6.30
2018-07-10T02:01:45.931Z,6.37
2018-07-10T02:04:15.107Z,6.57
2018-07-10T02:06:44.249Z,6.20
2018-07-10T02:09:13.361Z,5.67
2018-07-10T02:11:42.438Z,5.73
2018-07-10T02:14:11.535Z,6.20
2018-07-10T02:16:40.647Z,6.67
2018-07-10T02:19:09.831Z,5.80
2018-07-10T02:21:39.532Z,5.80
2018-07-10T02:24:08.703Z,5.57
2018-07-10T02:26:38.390Z,5.50
2018-07-10T02:29:07.565Z,5.23
2018-07-10T02:31:36.692Z,5.17
2018-07-10T02:34:05.913Z,5.17
2018-07-10T02:36:35.116Z,5.47
2018-07-10T02:39:04.983Z,5.13
2018-07-10T02:41:34.535Z,4.53
2018-07-10T02:44:05.558Z,4.33
2018-07-10T02:46:38.388Z,4.60
2018-07-10T02:49:15.179Z,4.03
2018-07-10T02:51:55.237Z,4.67
2018-07-10T02:54:26.523Z,4.43
2018-07-10T02:56:56.627Z,4.53
2018-07-10T02:59:32.722Z,4.37
2018-07-10T03:02:02.648Z,4.80
2018-07-10T03:04:34.031Z,4.47
2018-07-10T03:07:03.500Z,3.97
2018-07-10T03:09:32.750Z,4.90
2018-07-10T03:12:03.817Z,5.30
2018-07-10T03:14:32.934Z,4.03
2018-07-10T03:17:02.176Z,4.60
2018-07-10T03:19:31.956Z,5.20
2018-07-10T03:22:01.575Z,5.20
2018-07-10T03:24:30.902Z,4.87
2018-07-10T03:27:00.071Z,4.33
2018-07-10T03:29:29.324Z,4.53
2018-07-10T03:31:58.792Z,4.33
2018-07-10T03:34:27.833Z,4.27
2018-07-10T03:36:57.019Z,4.80
2018-07-10T03:39:26.056Z,4.27
2018-07-10T03:41:55.223Z,5.53
2018-07-10T03:44:25.356Z,5.00
2018-07-10T03:46:54.580Z,5.63
2018-07-10T03:49:23.799Z,3.93
2018-07-10T03:51:54.276Z,4.90
2018-07-10T03:54:24.135Z,4.30
2018-07-10T03:56:53.362Z,4.77
2018-07-10T03:59:23.632Z,4.10
2018-07-10T04:01:52.766Z,4.10
2018-07-10T04:04:21.933Z,4.50
2018-07-10T04:06:51.137Z,4.80
2018-07-10T04:09:20.334Z,4.63
2018-07-10T04:11:49.996Z,4.97
2018-07-10T04:14:21.479Z,4.40
2018-07-10T04:16:50.654Z,5.00
2018-07-10T04:19:20.254Z,4.87
2018-07-10T04:21:53.691Z,4.80
2018-07-10T04:24:23.429Z,5.43
2018-07-10T04:27:15.043Z,4.70
2018-07-10T04:30:21.151Z,4.03
2018-07-10T04:32:50.384Z,5.03
2018-07-10T04:35:23.396Z,5.40
2018-07-10T04:37:52.580Z,5.03
2018-07-10T04:40:21.794Z,5.30
2018-07-10T04:43:00.822Z,5.03
2018-07-10T04:45:47.160Z,4.03
2018-07-10T04:48:23.758Z,5.27
2018-07-10T04:50:57.075Z,4.87
2018-07-10T04:53:35.682Z,4.90
2018-07-10T04:56:05.067Z,4.50
2018-07-10T04:58:34.991Z,5.60
2018-07-10T05:01:04.999Z,5.07
2018-07-10T05:03:33.870Z,4.30
2018-07-10T05:06:05.077Z,4.30
2018-07-10T05:08:34.257Z,4.27
2018-07-10T05:11:03.532Z,5.10
2018-07-10T05:13:32.774Z,4.70
2018-07-10T05:16:06.360Z,4.53
2018-07-10T05:18:36.296Z,5.17
2018-07-10T05:21:10.695Z,4.47
2018-07-10T05:23:39.906Z,4.87
2018-07-10T05:26:13.223Z,4.70
2018-07-10T05:28:43.326Z,4.80
2018-07-10T05:31:12.595Z,4.73
2018-07-10T05:33:47.475Z,4.93
2018-07-10T05:36:17.953Z,5.07
2018-07-10T05:38:49.381Z,4.27
2018-07-10T05:41:21.481Z,5.17
2018-07-10T05:43:52.618Z,5.17
2018-07-10T05:46:23.457Z,4.47
2018-07-10T05:48:54.764Z,4.90
2018-07-10T05:51:26.190Z,4.60
2018-07-10T05:53:55.359Z,4.77
2018-07-10T05:56:24.731Z,5.30
2018-07-10T05:58:54.402Z,4.57
2018-07-10T06:01:23.624Z,4.27
2018-07-10T06:03:52.811Z,4.13
2018-07-10T06:06:22.062Z,4.57
2018-07-10T06:08:52.055Z,4.27
2018-07-10T06:11:22.171Z,4.80
2018-07-10T06:13:51.518Z,4.13
2018-07-10T06:16:21.511Z,4.10
2018-07-10T06:18:52.390Z,4.00
2018-07-10T06:21:22.415Z,4.90
2018-07-10T06:23:52.675Z,4.40
2018-07-10T06:26:21.930Z,4.80
2018-07-10T06:29:01.148Z,4.20
2018-07-10T06:31:33.765Z,4.90
2018-07-10T06:34:05.589Z,4.80
2018-07-10T06:36:40.851Z,4.70
2018-07-10T06:39:12.570Z,4.57
2018-07-10T06:42:00.884Z,4.17
2018-07-10T06:44:29.989Z,4.37
2018-07-10T06:47:01.278Z,4.60
2018-07-10T06:49:34.340Z,4.00
2018-07-10T06:52:20.576Z,3.77
2018-07-10T06:54:56.562Z,4.33
2018-07-10T06:57:29.036Z,3.57
2018-07-10T07:00:00.627Z,4.50
2018-07-10T07:02:30.164Z,4.50
2018-07-10T07:04:59.957Z,4.30
2018-07-10T07:07:29.759Z,5.17
2018-07-10T07:09:59.030Z,4.40
2018-07-10T07:12:28.185Z,4.40
2018-07-10T07:14:57.374Z,4.10
2018-07-10T07:17:26.550Z,4.50
2018-07-10T07:19:55.656Z,4.00
2018-07-10T07:22:24.822Z,4.70
2018-07-10T07:24:54.009Z,4.10
2018-07-10T07:27:23.215Z,4.10
2018-07-10T07:29:52.465Z,3.73
2018-07-10T07:32:21.832Z,4.67
2018-07-10T07:34:51.020Z,4.10
2018-07-10T07:37:20.315Z,4.20
2018-07-10T07:39:49.528Z,4.60
2018-07-10T07:42:19.299Z,4.07
2018-07-10T07:44:50.998Z,3.60
2018-07-10T07:47:25.178Z,3.63
2018-07-10T07:49:54.997Z,3.60
2018-07-10T07:52:28.078Z,3.47
2018-07-10T07:54:58.335Z,3.80
2018-07-10T07:57:28.003Z,4.07
2018-07-10T07:59:57.216Z,4.20
2018-07-10T08:02:26.446Z,3.93
2018-07-10T08:04:55.572Z,3.90
2018-07-10T08:07:25.802Z,3.50
2018-07-10T08:09:55.791Z,3.80
2018-07-10T08:12:26.468Z,4.80
2018-07-10T08:14:55.799Z,4.33
2018-07-10T08:17:25.921Z,3.50
2018-07-10T08:19:57.386Z,3.87
2018-07-10T08:22:27.725Z,3.33
2018-07-10T08:24:56.971Z,3.70
2018-07-10T08:27:27.348Z,3.50
2018-07-10T08:29:57.409Z,4.60
2018-07-10T08:32:28.698Z,4.20
2018-07-10T08:34:57.999Z,4.37
2018-07-10T08:37:27.374Z,3.60
2018-07-10T08:39:56.401Z,3.50
2018-07-10T08:42:25.607Z,3.53
2018-07-10T08:44:55.338Z,3.80
2018-07-10T08:47:24.659Z,3.73
2018-07-10T08:49:54.985Z,3.57
2018-07-10T08:52:24.460Z,3.13
2018-07-10T08:54:53.541Z,3.50
2018-07-10T08:57:22.836Z,3.30
2018-07-10T08:59:52.785Z,3.30
2018-07-10T09:02:21.946Z,2.63
2018-07-10T09:04:51.169Z,3.43
2018-07-10T09:07:20.401Z,3.20
2018-07-10T09:09:49.539Z,3.50
2018-07-10T09:12:18.712Z,3.17
2018-07-10T09:14:47.965Z,2.97
2018-07-10T09:17:17.310Z,2.80
2018-07-10T09:19:46.522Z,3.33
2018-07-10T09:22:15.882Z,3.20
2018-07-10T09:24:53.079Z,3.40
2018-07-10T09:27:23.429Z,3.30
2018-07-10T09:29:52.743Z,3.30
2018-07-10T09:32:53.084Z,3.07
2018-07-10T09:35:22.229Z,2.70
2018-07-10T09:37:51.623Z,3.30
2018-07-10T09:40:22.240Z,2.40
2018-07-10T09:43:01.425Z,3.30
2018-07-10T09:45:33.801Z,2.90
2018-07-10T09:48:03.814Z,2.73
2018-07-10T09:50:33.236Z,2.80
2018-07-10T09:53:03.269Z,3.30
2018-07-10T09:55:32.661Z,2.80
2018-07-10T09:58:02.462Z,2.93
2018-07-10T10:00:37.852Z,3.10
2018-07-10T10:03:07.064Z,3.00
2018-07-10T10:05:42.875Z,3.07
2018-07-10T10:08:12.488Z,3.20
2018-07-10T10:10:41.790Z,2.93
2018-07-10T10:13:11.045Z,3.80
2018-07-10T10:15:40.394Z,3.47
2018-07-10T10:18:10.318Z,3.40
2018-07-10T10:20:41.295Z,3.40
2018-07-10T10:23:11.530Z,2.93
2018-07-10T10:25:42.657Z,3.50
2018-07-10T10:28:11.820Z,3.07
2018-07-10T10:30:41.100Z,3.30
2018-07-10T10:33:10.859Z,3.00
2018-07-10T10:35:40.011Z,2.97
2018-07-10T10:38:09.276Z,2.57
2018-07-10T10:40:39.748Z,3.43
2018-07-10T10:43:11.051Z,2.63
2018-07-10T10:45:43.389Z,2.50
2018-07-10T10:48:13.896Z,2.20
2018-07-10T10:50:48.652Z,2.70
2018-07-10T10:53:18.789Z,2.50
2018-07-10T10:55:48.038Z,2.73
2018-07-10T10:58:19.755Z,2.60
2018-07-10T11:00:49.051Z,2.87
2018-07-10T11:03:18.415Z,2.47
2018-07-10T11:05:47.710Z,3.23
2018-07-10T11:08:16.893Z,2.50
2018-07-10T11:10:47.648Z,2.80
2018-07-10T11:13:17.575Z,3.00
2018-07-10T11:15:48.967Z,3.23
2018-07-10T11:18:47.059Z,2.90
2018-07-10T11:21:28.383Z,3.07
2018-07-10T11:23:59.508Z,2.60
2018-07-10T11:26:33.639Z,3.00
2018-07-10T11:29:03.565Z,3.27
2018-07-10T11:31:32.795Z,2.83
2018-07-10T11:34:02.100Z,3.30
2018-07-10T11:36:31.299Z,3.07
2018-07-10T11:39:06.352Z,2.70
2018-07-10T11:41:39.255Z,2.50
2018-07-10T11:44:09.347Z,3.47
2018-07-10T11:46:38.979Z,3.40
2018-07-10T11:49:08.314Z,3.23
2018-07-10T11:51:37.505Z,3.03
2018-07-10T11:54:06.635Z,3.00
2018-07-10T11:56:36.730Z,3.03
2018-07-10T11:59:05.522Z,2.90
2018-07-10T12:01:34.870Z,2.73
2018-07-10T12:04:04.976Z,2.73
2018-07-10T12:06:43.830Z,2.87
2018-07-10T12:09:13.727Z,2.53
2018-07-10T12:11:43.122Z,2.67
2018-07-10T12:14:12.318Z,3.43
2018-07-10T12:16:41.452Z,2.70
2018-07-10T12:19:10.552Z,3.23
2018-07-10T12:21:39.683Z,3.43
2018-07-10T12:24:08.900Z,3.17
2018-07-10T12:26:38.252Z,2.90
2018-07-10T12:29:07.712Z,3.37
2018-07-10T12:31:37.061Z,2.97
2018-07-10T12:34:06.269Z,2.80
2018-07-10T12:36:36.443Z,3.00
2018-07-10T12:39:05.922Z,3.20
2018-07-10T12:41:35.119Z,2.60
2018-07-10T12:44:04.305Z,2.80
2018-07-10T12:46:33.618Z,2.73
2018-07-10T12:49:02.802Z,2.43
2018-07-10T12:51:31.907Z,2.87
2018-07-10T12:54:01.056Z,2.67
2018-07-10T12:56:30.286Z,2.30
2018-07-10T12:58:59.574Z,2.73
2018-07-10T13:01:28.852Z,2.80
2018-07-10T13:03:58.123Z,3.50
2018-07-10T13:06:27.325Z,3.10
2018-07-10T13:08:56.512Z,2.70
2018-07-10T13:11:25.750Z,2.93
2018-07-10T13:13:54.997Z,2.60
2018-07-10T13:16:24.231Z,2.87
2018-07-10T13:18:53.492Z,2.83
2018-07-10T13:21:22.782Z,3.27
2018-07-10T13:23:52.034Z,2.70
2018-07-10T13:26:21.221Z,2.50
2018-07-10T13:28:50.480Z,3.10
2018-07-10T13:31:19.663Z,2.70
2018-07-10T13:33:48.809Z,3.47
2018-07-10T13:36:17.951Z,3.20
2018-07-10T13:38:47.149Z,2.90
2018-07-10T13:41:16.532Z,2.77
2018-07-10T13:43:45.564Z,2.97
2018-07-10T13:46:14.794Z,3.10
2018-07-10T13:48:43.933Z,2.93
2018-07-10T13:51:13.142Z,3.30
2018-07-10T13:53:42.254Z,2.60
2018-07-10T13:56:11.471Z,2.73
2018-07-10T13:58:40.653Z,3.17
2018-07-10T14:01:11.006Z,2.80
2018-07-10T14:03:40.470Z,2.90
2018-07-10T14:06:09.779Z,3.27
2018-07-10T14:08:38.969Z,3.70
2018-07-10T14:11:08.099Z,3.27
2018-07-10T14:13:37.577Z,3.30
2018-07-10T14:16:06.696Z,3.00
2018-07-10T14:18:35.924Z,3.20
2018-07-10T14:21:08.294Z,3.30
2018-07-10T14:23:37.876Z,3.00
2018-07-10T14:26:06.982Z,3.27
2018-07-10T14:28:36.141Z,3.80
2018-07-10T14:31:05.240Z,3.57
2018-07-10T14:33:34.426Z,3.70
2018-07-10T14:36:03.523Z,3.43
2018-07-10T14:38:32.720Z,4.50
2018-07-10T14:41:08.175Z,4.90
2018-07-10T14:43:42.914Z,5.60
2018-07-10T14:46:17.739Z,5.63
2018-07-10T14:49:03.874Z,6.20
2018-07-10T14:51:42.371Z,6.53
2018-07-10T14:54:12.196Z,7.07
2018-07-10T14:56:42.270Z,7.83
2018-07-10T14:59:12.008Z,11.20
2018-07-10T15:01:41.799Z,13.30
2018-07-10T15:04:11.060Z,16.83
2018-07-10T15:06:39.653Z,20.27
2018-07-10T15:09:09.654Z,21.00
2018-07-10T15:11:38.852Z,21.90
2018-07-10T15:14:09.175Z,29.10
2018-07-10T15:16:43.495Z,26.90
2018-07-10T15:19:12.659Z,28.20
2018-07-10T15:21:41.691Z,26.87
2018-07-10T15:24:10.769Z,24.40
2018-07-10T15:26:39.878Z,24.60
2018-07-10T15:29:09.081Z,23.10
2018-07-10T15:31:38.319Z,25.60
2018-07-10T15:34:07.579Z,22.27
2018-07-10T15:36:36.740Z,21.00
2018-07-10T15:39:05.809Z,20.40
2018-07-10T15:41:35.252Z,21.50
2018-07-10T15:44:04.395Z,18.37
2018-07-10T15:46:33.478Z,17.20
2018-07-10T15:49:02.687Z,18.50
2018-07-10T15:51:32.073Z,18.23
2018-07-10T15:54:01.155Z,17.70
2018-07-10T15:56:30.356Z,16.70
2018-07-10T15:58:59.531Z,18.60
2018-07-10T16:01:28.721Z,20.13
2018-07-10T16:03:57.911Z,17.27
2018-07-10T16:06:29.503Z,18.87
2018-07-10T16:09:06.086Z,17.73
2018-07-10T16:11:35.736Z,15.43
2018-07-10T16:14:04.923Z,17.03
2018-07-10T16:16:34.423Z,18.27
2018-07-10T16:19:12.038Z,16.20
2018-07-10T16:21:48.288Z,16.73
2018-07-10T16:24:17.854Z,18.97
2018-07-10T16:26:47.185Z,17.63
2018-07-10T16:29:18.726Z,20.03
2018-07-10T16:31:49.806Z,20.03
2018-07-10T16:34:19.006Z,18.57
2018-07-10T16:36:48.161Z,19.63
2018-07-10T16:39:16.783Z,18.60
2018-07-10T16:41:51.199Z,17.00
2018-07-10T16:44:20.422Z,17.37
2018-07-10T16:46:52.161Z,18.10
2018-07-10T16:49:29.138Z,18.47
2018-07-10T16:52:34.304Z,18.67
2018-07-10T16:55:03.430Z,18.57
2018-07-10T16:57:32.509Z,17.47
2018-07-10T17:00:01.721Z,20.30
2018-07-10T17:02:30.954Z,19.77
2018-07-10T17:05:00.211Z,19.27
2018-07-10T17:07:29.866Z,20.90
2018-07-10T17:09:59.340Z,22.80
2018-07-10T17:12:28.542Z,21.07
2018-07-10T17:14:59.005Z,20.40
2018-07-10T17:17:28.321Z,20.53
2018-07-10T17:19:57.706Z,21.50
2018-07-10T17:22:27.098Z,22.20
2018-07-10T17:24:56.901Z,21.10
2018-07-10T17:27:34.763Z,18.97
2018-07-10T17:30:05.014Z,18.40
2018-07-10T17:32:35.362Z,20.47
2018-07-10T17:35:04.935Z,17.60
2018-07-10T17:37:39.121Z,20.07
2018-07-10T17:40:08.281Z,19.13
2018-07-10T17:42:38.174Z,16.80
2018-07-10T17:45:08.675Z,19.77
2018-07-10T17:47:37.748Z,19.77
2018-07-10T17:50:07.698Z,17.60
2018-07-10T17:52:36.876Z,17.60
2018-07-10T17:55:06.080Z,16.80
2018-07-10T17:57:35.960Z,17.23
2018-07-10T18:00:06.333Z,17.10
2018-07-10T18:02:35.769Z,18.90
2018-07-10T18:05:05.903Z,18.00
2018-07-10T18:07:35.584Z,19.83
2018-07-10T18:10:05.094Z,20.77
2018-07-10T18:12:34.695Z,20.70
2018-07-10T18:15:03.942Z,25.33
2018-07-10T18:17:33.425Z,23.80
2018-07-10T18:20:02.598Z,24.57
2018-07-10T18:22:32.276Z,25.93
2018-07-10T18:25:02.349Z,24.87
2018-07-10T18:27:31.524Z,27.17
2018-07-10T18:30:01.164Z,23.10
2018-07-10T18:32:30.959Z,21.47
2018-07-10T18:35:01.010Z,21.63
2018-07-10T18:37:30.627Z,23.10
2018-07-10T18:39:59.800Z,20.57
2018-07-10T18:42:29.071Z,20.00
2018-07-10T18:44:58.316Z,23.40
2018-07-10T18:47:27.514Z,25.10
2018-07-10T18:49:57.469Z,22.37
2018-07-10T18:52:29.628Z,21.70
2018-07-10T18:55:01.539Z,23.57
2018-07-10T18:59:44.409Z,27.00
2018-07-10T19:02:18.167Z,26.53
2018-07-10T19:04:58.421Z,24.00
2018-07-10T19:07:27.673Z,23.13
2018-07-10T19:09:57.571Z,23.20
2018-07-10T19:12:26.871Z,25.27
2018-07-10T19:14:56.358Z,24.20
2018-07-10T19:17:27.843Z,27.30
2018-07-10T19:20:06.303Z,24.80
2018-07-10T19:23:42.421Z,24.33
2018-07-10T19:26:11.820Z,26.40
2018-07-10T19:28:41.205Z,26.50
2018-07-10T19:31:18.395Z,26.73
2018-07-10T19:33:51.027Z,25.50
2018-07-10T19:36:20.353Z,28.57
2018-07-10T19:38:49.861Z,27.37
2018-07-10T19:41:20.266Z,22.87
2018-07-10T19:43:49.805Z,23.57
2018-07-10T19:46:20.107Z,25.70
2018-07-10T19:48:53.270Z,26.53
2018-07-10T19:51:25.395Z,28.60
2018-07-10T19:53:58.284Z,24.33
2018-07-10T19:56:28.111Z,24.10
2018-07-10T19:58:58.299Z,22.40
2018-07-10T20:01:39.968Z,30.33
2018-07-10T20:04:18.439Z,26.83
2018-07-10T20:07:09.274Z,28.80
2018-07-10T20:09:52.975Z,25.50
2018-07-10T20:12:28.527Z,25.60
2018-07-10T20:16:08.382Z,23.03
2018-07-10T20:20:16.205Z,26.67
2018-07-10T20:23:02.344Z,26.13
2018-07-10T20:25:46.048Z,27.30
2018-07-10T20:29:26.650Z,24.37
2018-07-10T20:32:05.259Z,24.40
2018-07-10T20:34:46.629Z,22.77
2018-07-10T20:37:22.541Z,28.47
2018-07-10T20:39:52.291Z,30.13
2018-07-10T20:42:22.043Z,33.77
2018-07-10T20:45:04.919Z,32.30
2018-07-10T20:47:48.329Z,30.80
2018-07-10T20:51:21.786Z,30.10
2018-07-10T20:54:57.288Z,28.03
2018-07-10T20:57:34.359Z,29.33
2018-07-10T21:00:09.274Z,29.20
2018-07-10T21:03:50.835Z,31.30
2018-07-10T21:06:29.461Z,31.00
2018-07-10T21:09:14.078Z,26.83
2018-07-10T21:12:11.521Z,26.70
2018-07-10T21:15:16.085Z,25.17
2018-07-10T21:17:53.516Z,28.40
2018-07-10T21:20:35.467Z,26.20
2018-07-10T21:23:14.427Z,31.30
2018-07-10T21:25:55.494Z,31.57
2018-07-10T21:28:34.960Z,27.00
2018-07-10T21:32:10.775Z,30.47
2018-07-10T21:34:50.311Z,30.20
2018-07-10T21:39:35.199Z,33.80
2018-07-10T21:42:28.616Z,33.07
2018-07-10T21:46:05.502Z,33.20
2018-07-10T21:48:56.401Z,31.40
2018-07-10T21:51:26.051Z,28.30
2018-07-10T21:53:55.202Z,25.50
2018-07-10T21:56:24.384Z,24.20
2018-07-10T21:58:53.482Z,23.53
2018-07-10T22:01:47.639Z,22.80
2018-07-10T22:04:19.554Z,24.40
2018-07-10T22:06:50.942Z,26.97
2018-07-10T22:09:20.245Z,26.50
2018-07-10T22:11:50.036Z,26.20
2018-07-10T22:14:19.427Z,26.07
2018-07-10T22:16:48.570Z,29.50
2018-07-10T22:19:24.903Z,27.20
2018-07-10T22:21:55.039Z,27.30
2018-07-10T22:24:25.606Z,29.90
2018-07-10T22:26:56.769Z,31.97
2018-07-10T22:29:31.140Z,28.70
2018-07-10T22:32:01.519Z,26.20
2018-07-10T22:34:31.839Z,30.57
2018-07-10T22:37:01.074Z,27.73
2018-07-10T22:39:30.302Z,26.90
2018-07-10T22:42:02.191Z,30.70
2018-07-10T22:44:35.384Z,25.97
2018-07-10T22:47:05.420Z,27.90
2018-07-10T22:49:34.686Z,30.27
2018-07-10T22:52:05.082Z,29.60
2018-07-10T22:54:37.180Z,27.93
2018-07-10T22:57:09.650Z,27.63
2018-07-10T22:59:38.833Z,25.40
2018-07-10T23:02:08.886Z,28.20
2018-07-10T23:04:38.503Z,24.77
2018-07-10T23:07:08.210Z,25.00
2018-07-10T23:15:26.283Z,27.80
2018-07-10T23:17:55.748Z,25.57
2018-07-10T23:20:26.136Z,23.27
2018-07-10T23:22:56.461Z,23.23
2018-07-10T23:25:27.360Z,26.33
2018-07-10T23:28:06.701Z,26.00
2018-07-10T23:30:40.055Z,25.60
2018-07-10T23:33:11.111Z,26.30
2018-07-10T23:35:41.850Z,24.80
2018-07-10T23:38:21.944Z,23.27
2018-07-10T23:40:51.257Z,25.00
2018-07-10T23:43:20.859Z,25.10
2018-07-10T23:45:50.112Z,26.27
2018-07-10T23:48:19.708Z,25.63
2018-07-10T23:50:50.970Z,25.70
2018-07-10T23:53:32.673Z,24.10
2018-07-10T23:56:01.875Z,24.80
2018-07-10T23:58:31.094Z,23.70
